Terminal Aerodrome Forecast
Issued by NWS

Home | Current Version | Previous Version | Graphics & Text | Print | Product List | Glossary On
Versions: 1 2 3 4 5 6 7 8 9 10 11 12 13 14 15 16 17 18 19 20 21 22 23 24 25 26 27 28 29
000
FTUS43 KLOT 180535
TAFORD
TAF
KORD 180535Z 1806/1912 07004KT P6SM SKC
     FM181300 09014G20KT P6SM BKN050 OVC120
     FM181700 07014G21KT 4SM -SHRA VCTS OVC025CB PROB30 1817/1820
      2SM TSRAGS
     FM182000 01012G20KT 1 1/2SM -DZRA BR OVC006
     FM190200 34014G22KT 1SM -SN BR OVC007
     FM190900 34010KT P6SM BKN080=

USA.gov is the U.S. government's official web portal to all federal, state and local government web resources and services.